sensor_id;sensor_type;location;lat;lon;timestamp;pressure;altitude;pressure_sealevel;temperature;humidity
80798;BME280;70202;52.238;10.680;2023-11-21T00:00:23;99549.22;;;10.46;99.26
80798;BME280;70202;52.238;10.680;2023-11-21T00:01:23;99555.69;;;10.44;99.26
80798;BME280;70202;52.238;10.680;2023-11-21T00:02:23;99536.84;;;10.39;99.57
80798;BME280;70202;52.238;10.680;2023-11-21T00:03:24;99559.13;;;10.47;99.35
80798;BME280;70202;52.238;10.680;2023-11-21T00:04:24;99569.41;;;10.60;99.70
80798;BME280;70202;52.238;10.680;2023-11-21T00:05:25;99548.38;;;10.44;99.19
80798;BME280;70202;52.238;10.680;2023-11-21T00:06:25;99562.34;;;10.56;99.73
80798;BME280;70202;52.238;10.680;2023-11-21T00:07:25;99560.66;;;10.53;99.74
80798;BME280;70202;52.238;10.680;2023-11-21T00:08:26;99565.16;;;10.54;99.69
80798;BME280;70202;52.238;10.680;2023-11-21T00:09:27;99558.34;;;10.45;99.13
80798;BME280;70202;52.238;10.680;2023-11-21T00:10:27;99559.00;;;10.50;99.45
80798;BME280;70202;52.238;10.680;2023-11-21T00:11:28;99559.13;;;10.47;99.32
80798;BME280;70202;52.238;10.680;2023-11-21T00:12:29;99566.09;;;10.53;99.21
80798;BME280;70202;52.238;10.680;2023-11-21T00:13:29;99574.84;;;10.60;99.48
80798;BME280;70202;52.238;10.680;2023-11-21T00:14:30;99538.94;;;10.34;99.03
80798;BME280;70202;52.238;10.680;2023-11-21T00:15:30;99573.25;;;10.56;99.05
80798;BME280;70202;52.238;10.680;2023-11-21T00:16:30;99565.31;;;10.51;99.08
80798;BME280;70202;52.238;10.680;2023-11-21T00:17:31;99548.47;;;10.43;98.97
80798;BME280;70202;52.238;10.680;2023-11-21T00:18:31;99546.00;;;10.38;98.84
80798;BME280;70202;52.238;10.680;2023-11-21T00:19:32;99582.25;;;10.58;99.01
80798;BME280;70202;52.238;10.680;2023-11-21T00:20:33;99561.78;;;10.49;98.67
80798;BME280;70202;52.238;10.680;2023-11-21T00:21:34;99552.16;;;10.42;99.09
80798;BME280;70202;52.238;10.680;2023-11-21T00:22:34;99561.22;;;10.42;99.19
80798;BME280;70202;52.238;10.680;2023-11-21T00:23:35;99570.53;;;10.56;98.84
80798;BME280;70202;52.238;10.680;2023-11-21T00:24:35;99584.06;;;10.57;98.99
80798;BME280;70202;52.238;10.680;2023-11-21T00:25:36;99555.63;;;10.45;98.87
80798;BME280;70202;52.238;10.680;2023-11-21T00:26:36;99578.59;;;10.57;98.94
80798;BME280;70202;52.238;10.680;2023-11-21T00:27:38;99558.41;;;10.44;98.69
80798;BME280;70202;52.238;10.680;2023-11-21T00:28:38;99582.28;;;10.56;98.72
80798;BME280;70202;52.238;10.680;2023-11-21T00:29:39;99572.66;;;10.49;98.62
80798;BME280;70202;52.238;10.680;2023-11-21T00:30:39;99561.22;;;10.42;98.91
80798;BME280;70202;52.238;10.680;2023-11-21T00:31:39;99572.00;;;10.44;99.05
80798;BME280;70202;52.238;10.680;2023-11-21T00:32:40;99550.56;;;10.38;98.92
80798;BME280;70202;52.238;10.680;2023-11-21T00:33:40;99585.09;;;10.55;98.90
80798;BME280;70202;52.238;10.680;2023-11-21T00:34:40;99561.44;;;10.38;98.37
80798;BME280;70202;52.238;10.680;2023-11-21T00:35:41;99587.09;;;10.51;98.68
80798;BME280;70202;52.238;10.680;2023-11-21T00:36:41;99568.66;;;10.39;98.54
80798;BME280;70202;52.238;10.680;2023-11-21T00:37:42;99559.84;;;10.34;98.60
80798;BME280;70202;52.238;10.680;2023-11-21T00:38:42;99591.72;;;10.49;98.77
80798;BME280;70202;52.238;10.680;2023-11-21T00:39:43;99572.19;;;10.41;98.76
80798;BME280;70202;52.238;10.680;2023-11-21T00:40:43;99574.09;;;10.39;98.77
80798;BME280;70202;52.238;10.680;2023-11-21T00:41:44;99574.91;;;10.41;99.08
80798;BME280;70202;52.238;10.680;2023-11-21T00:42:45;99574.00;;;10.40;99.08
80798;BME280;70202;52.238;10.680;2023-11-21T00:43:46;99588.06;;;10.50;99.30
80798;BME280;70202;52.238;10.680;2023-11-21T00:44:47;99581.25;;;10.41;98.87
80798;BME280;70202;52.238;10.680;2023-11-21T00:45:47;99585.56;;;10.45;99.06
80798;BME280;70202;52.238;10.680;2023-11-21T00:46:49;99557.41;;;10.27;99.04
80798;BME280;70202;52.238;10.680;2023-11-21T00:47:50;99598.97;;;10.50;99.54
80798;BME280;70202;52.238;10.680;2023-11-21T00:48:51;99556.66;;;10.24;99.28
80798;BME280;70202;52.238;10.680;2023-11-21T00:49:51;99601.69;;;10.50;99.31
80798;BME280;70202;52.238;10.680;2023-11-21T00:50:51;99578.56;;;10.40;99.14
80798;BME280;70202;52.238;10.680;2023-11-21T00:51:52;99581.47;;;10.37;99.02
80798;BME280;70202;52.238;10.680;2023-11-21T00:52:52;99579.53;;;10.39;99.23
80798;BME280;70202;52.238;10.680;2023-11-21T00:53:53;99579.63;;;10.37;99.10
80798;BME280;70202;52.238;10.680;2023-11-21T00:54:53;99604.41;;;10.50;99.10
80798;BME280;70202;52.238;10.680;2023-11-21T00:55:53;99588.53;;;10.41;99.30
80798;BME280;70202;52.238;10.680;2023-11-21T00:56:57;99584.00;;;10.40;99.27
80798;BME280;70202;52.238;10.680;2023-11-21T00:57:57;99586.75;;;10.40;99.21
80798;BME280;70202;52.238;10.680;2023-11-21T00:58:58;99586.09;;;10.35;98.92
80798;BME280;70202;52.238;10.680;2023-11-21T00:59:59;99594.13;;;10.38;98.96
80798;BME280;70202;52.238;10.680;2023-11-21T01:01:00;99584.56;;;10.29;99.24
80798;BME280;70202;52.238;10.680;2023-11-21T01:02:00;99603.06;;;10.40;99.27
80798;BME280;70202;52.238;10.680;2023-11-21T01:03:01;99587.19;;;10.31;99.24
80798;BME280;70202;52.238;10.680;2023-11-21T01:04:02;99572.19;;;10.22;98.95
80798;BME280;70202;52.238;10.680;2023-11-21T01:05:03;99576.66;;;10.23;99.07
80798;BME280;70202;52.238;10.680;2023-11-21T01:06:04;99591.84;;;10.29;99.32
80798;BME280;70202;52.238;10.680;2023-11-21T01:07:07;99609.41;;;10.40;99.15
80798;BME280;70202;52.238;10.680;2023-11-21T01:08:08;99595.50;;;10.27;99.18
80798;BME280;70202;52.238;10.680;2023-11-21T01:09:08;99605.16;;;10.35;99.93
80798;BME280;70202;52.238;10.680;2023-11-21T01:10:09;99597.22;;;10.30;99.24
80798;BME280;70202;52.238;10.680;2023-11-21T01:11:10;99605.88;;;10.38;99.52
80798;BME280;70202;52.238;10.680;2023-11-21T01:12:12;99611.47;;;10.35;99.39
80798;BME280;70202;52.238;10.680;2023-11-21T01:13:14;99613.22;;;10.36;99.12
80798;BME280;70202;52.238;10.680;2023-11-21T01:14:15;99577.06;;;10.15;99.36
80798;BME280;70202;52.238;10.680;2023-11-21T01:15:17;99591.22;;;10.22;98.87
80798;BME280;70202;52.238;10.680;2023-11-21T01:16:18;99609.72;;;10.34;99.36
80798;BME280;70202;52.238;10.680;2023-11-21T01:17:18;99599.19;;;10.26;98.94
80798;BME280;70202;52.238;10.680;2023-11-21T01:18:19;99597.50;;;10.24;99.24
80798;BME280;70202;52.238;10.680;2023-11-21T01:19:19;99614.34;;;10.32;99.53
80798;BME280;70202;52.238;10.680;2023-11-21T01:20:19;99599.31;;;10.23;99.78
80798;BME280;70202;52.238;10.680;2023-11-21T01:21:20;99601.16;;;10.23;99.77
80798;BME280;70202;52.238;10.680;2023-11-21T01:22:20;99583.50;;;10.13;99.87
80798;BME280;70202;52.238;10.680;2023-11-21T01:23:26;99618.97;;;10.30;99.26
80798;BME280;70202;52.238;10.680;2023-11-21T01:24:27;99603.88;;;10.23;99.41
80798;BME280;70202;52.238;10.680;2023-11-21T01:25:27;99616.25;;;10.30;99.45
80798;BME280;70202;52.238;10.680;2023-11-21T01:26:28;99619.94;;;10.29;99.49
80798;BME280;70202;52.238;10.680;2023-11-21T01:27:28;99622.72;;;10.27;99.49
80798;BME280;70202;52.238;10.680;2023-11-21T01:28:28;99586.25;;;10.13;99.53
80798;BME280;70202;52.238;10.680;2023-11-21T01:29:29;99589.84;;;10.13;99.43
80798;BME280;70202;52.238;10.680;2023-11-21T01:30:29;99620.97;;;10.26;99.58
80798;BME280;70202;52.238;10.680;2023-11-21T01:31:29;99590.94;;;10.09;99.59
80798;BME280;70202;52.238;10.680;2023-11-21T01:32:30;99612.19;;;10.20;99.72
80798;BME280;70202;52.238;10.680;2023-11-21T01:33:30;99596.28;;;10.11;99.68
80798;BME280;70202;52.238;10.680;2023-11-21T01:34:30;99602.56;;;10.13;99.87
80798;BME280;70202;52.238;10.680;2023-11-21T01:35:31;99609.53;;;10.18;100.00
80798;BME280;70202;52.238;10.680;2023-11-21T01:36:32;99618.34;;;10.25;100.00
80798;BME280;70202;52.238;10.680;2023-11-21T01:37:33;99598.97;;;10.12;99.91
80798;BME280;70202;52.238;10.680;2023-11-21T01:38:33;99598.00;;;10.13;100.00
80798;BME280;70202;52.238;10.680;2023-11-21T01:39:34;99610.19;;;10.23;99.97
80798;BME280;70202;52.238;10.680;2023-11-21T01:40:35;99605.84;;;10.19;99.74
80798;BME280;70202;52.238;10.680;2023-11-21T01:41:35;99582.88;;;10.08;100.00
80798;BME280;70202;52.238;10.680;2023-11-21T01:42:37;99568.97;;;9.95;99.71
80798;BME280;70202;52.238;10.680;2023-11-21T01:43:37;99590.28;;;10.04;99.89
80798;BME280;70202;52.238;10.680;2023-11-21T01:44:37;99584.09;;;10.00;100.00
80798;BME280;70202;52.238;10.680;2023-11-21T01:45:38;99608.88;;;10.13;100.00
80798;BME280;70202;52.238;10.680;2023-11-21T01:46:39;99632.94;;;10.22;100.00
80798;BME280;70202;52.238;10.680;2023-11-21T01:47:41;99610.63;;;10.14;100.00
80798;BME280;70202;52.238;10.680;2023-11-21T01:48:42;99626.53;;;10.23;100.00
80798;BME280;70202;52.238;10.680;2023-11-21T01:49:46;99607.88;;;10.16;100.00
80798;BME280;70202;52.238;10.680;2023-11-21T01:50:47;99631.06;;;10.24;100.00
80798;BME280;70202;52.238;10.680;2023-11-21T01:51:49;99602.78;;;10.08;100.00
80798;BME280;70202;52.238;10.680;2023-11-21T01:52:51;99638.25;;;10.25;100.00
80798;BME280;70202;52.238;10.680;2023-11-21T01:53:52;99630.28;;;10.21;100.00
80798;BME280;70202;52.238;10.680;2023-11-21T01:54:52;99645.47;;;10.26;100.00
80798;BME280;70202;52.238;10.680;2023-11-21T01:55:55;99591.25;;;10.03;100.00
80798;BME280;70202;52.238;10.680;2023-11-21T01:56:55;99646.28;;;10.29;100.00
80798;BME280;70202;52.238;10.680;2023-11-21T01:57:56;99642.75;;;10.26;100.00
80798;BME280;70202;52.238;10.680;2023-11-21T01:58:58;99611.00;;;10.07;100.00
80798;BME280;70202;52.238;10.680;2023-11-21T01:59:58;99622.50;;;10.13;100.00
80798;BME280;70202;52.238;10.680;2023-11-21T02:01:01;99631.47;;;10.15;100.00
80798;BME280;70202;52.238;10.680;2023-11-21T02:02:02;99627.06;;;10.13;100.00
80798;BME280;70202;52.238;10.680;2023-11-21T02:03:02;99625.00;;;10.18;100.00
80798;BME280;70202;52.238;10.680;2023-11-21T02:04:04;99587.19;;;9.93;100.00
80798;BME280;70202;52.238;10.680;2023-11-21T02:05:04;99653.63;;;10.26;100.00
80798;BME280;70202;52.238;10.680;2023-11-21T02:06:05;99649.25;;;10.22;100.00
80798;BME280;70202;52.238;10.680;2023-11-21T02:07:06;99628.81;;;10.14;100.00
80798;BME280;70202;52.238;10.680;2023-11-21T02:08:06;99646.47;;;10.24;100.00
80798;BME280;70202;52.238;10.680;2023-11-21T02:09:09;99656.31;;;10.28;100.00
80798;BME280;70202;52.238;10.680;2023-11-21T02:10:10;99646.63;;;10.21;100.00
80798;BME280;70202;52.238;10.680;2023-11-21T02:11:14;99619.16;;;10.07;100.00
80798;BME280;70202;52.238;10.680;2023-11-21T02:12:16;99645.75;;;10.20;100.00
80798;BME280;70202;52.238;10.680;2023-11-21T02:13:16;99651.75;;;10.29;100.00
80798;BME280;70202;52.238;10.680;2023-11-21T02:14:16;99639.56;;;10.17;100.00
80798;BME280;70202;52.238;10.680;2023-11-21T02:15:20;99652.63;;;10.29;100.00
80798;BME280;70202;52.238;10.680;2023-11-21T02:16:21;99639.47;;;10.18;100.00
80798;BME280;70202;52.238;10.680;2023-11-21T02:17:21;99639.56;;;10.17;100.00
80798;BME280;70202;52.238;10.680;2023-11-21T02:18:22;99648.38;;;10.22;100.00
80798;BME280;70202;52.238;10.680;2023-11-21T02:19:23;99640.22;;;10.22;99.98
80798;BME280;70202;52.238;10.680;2023-11-21T02:20:25;99656.31;;;10.28;100.00
80798;BME280;70202;52.238;10.680;2023-11-21T02:21:27;99635.06;;;10.16;100.00
80798;BME280;70202;52.238;10.680;2023-11-21T02:22:31;99632.41;;;10.14;100.00
80798;BME280;70202;52.238;10.680;2023-11-21T02:23:32;99645.88;;;10.17;100.00
80798;BME280;70202;52.238;10.680;2023-11-21T02:24:33;99624.56;;;10.08;100.00
80798;BME280;70202;52.238;10.680;2023-11-21T02:25:34;99655.47;;;10.26;100.00
80798;BME280;70202;52.238;10.680;2023-11-21T02:26:34;99629.03;;;10.09;100.00
80798;BME280;70202;52.238;10.680;2023-11-21T02:27:35;99642.38;;;10.15;100.00
80798;BME280;70202;52.238;10.680;2023-11-21T02:28:36;99660.09;;;10.24;100.00
80798;BME280;70202;52.238;10.680;2023-11-21T02:29:38;99644.13;;;10.16;100.00
80798;BME280;70202;52.238;10.680;2023-11-21T02:30:39;99645.88;;;10.17;100.00
80798;BME280;70202;52.238;10.680;2023-11-21T02:31:39;99638.06;;;10.10;100.00
80798;BME280;70202;52.238;10.680;2023-11-21T02:32:48;99649.41;;;10.19;100.00
80798;BME280;70202;52.238;10.680;2023-11-21T02:33:48;99635.13;;;10.14;100.00
80798;BME280;70202;52.238;10.680;2023-11-21T02:34:49;99644.03;;;10.18;100.00
80798;BME280;70202;52.238;10.680;2023-11-21T02:35:50;99660.84;;;10.27;100.00
80798;BME280;70202;52.238;10.680;2023-11-21T02:36:54;99660.78;;;10.29;100.00
80798;BME280;70202;52.238;10.680;2023-11-21T02:37:55;99633.28;;;10.15;100.00
80798;BME280;70202;52.238;10.680;2023-11-21T02:38:56;99647.41;;;10.24;100.00
80798;BME280;70202;52.238;10.680;2023-11-21T02:39:57;99657.09;;;10.30;100.00
80798;BME280;70202;52.238;10.680;2023-11-21T02:40:57;99654.47;;;10.29;100.00
80798;BME280;70202;52.238;10.680;2023-11-21T02:41:59;99549.34;;;9.69;100.00
80798;BME280;70202;52.238;10.680;2023-11-21T02:42:59;99665.91;;;10.35;100.00
80798;BME280;70202;52.238;10.680;2023-11-21T02:44:00;99647.09;;;10.31;100.00
80798;BME280;70202;52.238;10.680;2023-11-21T02:45:01;99666.78;;;10.36;100.00
80798;BME280;70202;52.238;10.680;2023-11-21T02:46:01;99646.47;;;10.24;100.00
80798;BME280;70202;52.238;10.680;2023-11-21T02:47:01;99641.09;;;10.22;100.00
80798;BME280;70202;52.238;10.680;2023-11-21T02:48:02;99635.66;;;10.22;100.00
80798;BME280;70202;52.238;10.680;2023-11-21T02:49:03;99646.94;;;10.34;100.00
80798;BME280;70202;52.238;10.680;2023-11-21T02:50:04;99646.22;;;10.30;100.00
80798;BME280;70202;52.238;10.680;2023-11-21T02:51:06;99624.84;;;10.21;100.00
80798;BME280;70202;52.238;10.680;2023-11-21T02:52:06;99624.19;;;10.16;100.00
80798;BME280;70202;52.238;10.680;2023-11-21T02:53:07;99659.38;;;10.39;100.00
80798;BME280;70202;52.238;10.680;2023-11-21T02:54:07;99625.63;;;10.23;100.00
80798;BME280;70202;52.238;10.680;2023-11-21T02:55:08;99647.09;;;10.31;100.00
80798;BME280;70202;52.238;10.680;2023-11-21T02:56:09;99664.66;;;10.42;100.00
80798;BME280;70202;52.238;10.680;2023-11-21T02:57:09;99639.00;;;10.29;100.00
80798;BME280;70202;52.238;10.680;2023-11-21T02:58:09;99650.53;;;10.34;100.00
80798;BME280;70202;52.238;10.680;2023-11-21T02:59:10;99663.94;;;10.39;99.76
80798;BME280;70202;52.238;10.680;2023-11-21T03:00:10;99658.56;;;10.37;100.00
80798;BME280;70202;52.238;10.680;2023-11-21T03:01:13;99647.16;;;10.29;100.00
80798;BME280;70202;52.238;10.680;2023-11-21T03:02:13;99641.56;;;10.32;100.00
80798;BME280;70202;52.238;10.680;2023-11-21T03:03:13;99635.72;;;10.21;99.97
80798;BME280;70202;52.238;10.680;2023-11-21T03:04:14;99679.25;;;10.41;100.00
80798;BME280;70202;52.238;10.680;2023-11-21T03:05:17;99676.53;;;10.41;100.00
80798;BME280;70202;52.238;10.680;2023-11-21T03:06:21;99660.56;;;10.34;100.00
80798;BME280;70202;52.238;10.680;2023-11-21T03:07:21;99678.28;;;10.42;100.00
80798;BME280;70202;52.238;10.680;2023-11-21T03:08:21;99668.50;;;10.38;100.00
80798;BME280;70202;52.238;10.680;2023-11-21T03:09:22;99652.63;;;10.29;100.00
80798;BME280;70202;52.238;10.680;2023-11-21T03:10:22;99666.78;;;10.36;100.00
80798;BME280;70202;52.238;10.680;2023-11-21T03:11:23;99655.25;;;10.31;100.00
80798;BME280;70202;52.238;10.680;2023-11-21T03:12:23;99678.56;;;10.36;99.89
80798;BME280;70202;52.238;10.680;2023-11-21T03:13:24;99657.97;;;10.31;99.85
80798;BME280;70202;52.238;10.680;2023-11-21T03:14:24;99658.09;;;10.27;100.00
80798;BME280;70202;52.238;10.680;2023-11-21T03:15:24;99652.84;;;10.24;99.99
80798;BME280;70202;52.238;10.680;2023-11-21T03:16:25;99662.53;;;10.30;100.00
80798;BME280;70202;52.238;10.680;2023-11-21T03:17:26;99667.00;;;10.31;99.50
80798;BME280;70202;52.238;10.680;2023-11-21T03:18:26;99672.31;;;10.34;100.00
80798;BME280;70202;52.238;10.680;2023-11-21T03:19:29;99681.00;;;10.42;99.90
80798;BME280;70202;52.238;10.680;2023-11-21T03:20:29;99658.28;;;10.24;100.00
80798;BME280;70202;52.238;10.680;2023-11-21T03:21:30;99687.41;;;10.41;100.00
80798;BME280;70202;52.238;10.680;2023-11-21T03:22:30;99691.00;;;10.42;100.00
80798;BME280;70202;52.238;10.680;2023-11-21T03:23:31;99665.25;;;10.30;100.00
80798;BME280;70202;52.238;10.680;2023-11-21T03:24:31;99682.25;;;10.35;100.00
80798;BME280;70202;52.238;10.680;2023-11-21T03:25:32;99643.91;;;10.21;100.00
80798;BME280;70202;52.238;10.680;2023-11-21T03:26:32;99664.47;;;10.28;100.00
80798;BME280;70202;52.238;10.680;2023-11-21T03:27:32;99682.09;;;10.38;100.00
80798;BME280;70202;52.238;10.680;2023-11-21T03:28:33;99691.81;;;10.44;100.00
80798;BME280;70202;52.238;10.680;2023-11-21T03:29:34;99694.53;;;10.44;100.00
80798;BME280;70202;52.238;10.680;2023-11-21T03:30:34;99677.63;;;10.37;100.00
80798;BME280;70202;52.238;10.680;2023-11-21T03:31:35;99684.69;;;10.41;100.00
80798;BME280;70202;52.238;10.680;2023-11-21T03:32:36;99697.25;;;10.44;100.00
80798;BME280;70202;52.238;10.680;2023-11-21T03:33:36;99677.91;;;10.31;100.00
80798;BME280;70202;52.238;10.680;2023-11-21T03:34:56;99691.81;;;10.44;100.00
80798;BME280;70202;52.238;10.680;2023-11-21T03:35:56;99679.53;;;10.35;100.00
80798;BME280;70202;52.238;10.680;2023-11-21T03:36:57;99678.66;;;10.35;100.00
80798;BME280;70202;52.238;10.680;2023-11-21T03:37:57;99679.53;;;10.35;100.00
80798;BME280;70202;52.238;10.680;2023-11-21T03:38:57;99667.31;;;10.25;100.00
80798;BME280;70202;52.238;10.680;2023-11-21T03:39:58;99696.31;;;10.45;100.00
80798;BME280;70202;52.238;10.680;2023-11-21T03:40:58;99701.69;;;10.46;99.97
80798;BME280;70202;52.238;10.680;2023-11-21T03:41:58;99701.69;;;10.46;100.00
80798;BME280;70202;52.238;10.680;2023-11-21T03:42:59;99688.44;;;10.39;99.92
80798;BME280;70202;52.238;10.680;2023-11-21T03:43:59;99688.50;;;10.37;100.00
80798;BME280;70202;52.238;10.680;2023-11-21T03:45:00;99693.88;;;10.39;100.00
80798;BME280;70202;52.238;10.680;2023-11-21T03:46:00;99676.22;;;10.29;99.85
80798;BME280;70202;52.238;10.680;2023-11-21T03:47:01;99700.28;;;10.38;99.83
80798;BME280;70202;52.238;10.680;2023-11-21T03:48:01;99684.22;;;10.32;99.71
80798;BME280;70202;52.238;10.680;2023-11-21T03:49:02;99688.78;;;10.31;100.00
80798;BME280;70202;52.238;10.680;2023-11-21T03:50:02;99695.81;;;10.37;100.00
80798;BME280;70202;52.238;10.680;2023-11-21T03:51:03;99686.28;;;10.26;99.87
80798;BME280;70202;52.238;10.680;2023-11-21T03:52:04;99685.50;;;10.24;100.00
80798;BME280;70202;52.238;10.680;2023-11-21T03:53:05;99698.72;;;10.32;100.00
80798;BME280;70202;52.238;10.680;2023-11-21T03:54:05;99707.84;;;10.31;100.00
80798;BME280;70202;52.238;10.680;2023-11-21T03:55:06;99721.00;;;10.40;100.00
80798;BME280;70202;52.238;10.680;2023-11-21T03:56:06;99705.13;;;10.31;100.00
80798;BME280;70202;52.238;10.680;2023-11-21T03:57:07;99681.16;;;10.19;100.00
80798;BME280;70202;52.238;10.680;2023-11-21T03:58:07;99710.50;;;10.33;100.00
80798;BME280;70202;52.238;10.680;2023-11-21T03:59:08;99688.22;;;10.24;100.00
80798;BME280;70202;52.238;10.680;2023-11-21T04:00:08;99723.81;;;10.39;100.00
80798;BME280;70202;52.238;10.680;2023-11-21T04:01:10;99641.69;;;9.91;100.00
80798;BME280;70202;52.238;10.680;2023-11-21T04:02:10;99708.91;;;10.29;100.00
80798;BME280;70202;52.238;10.680;2023-11-21T04:03:11;99720.31;;;10.37;100.00
80798;BME280;70202;52.238;10.680;2023-11-21T04:04:11;99703.50;;;10.27;100.00
80798;BME280;70202;52.238;10.680;2023-11-21T04:05:12;99730.28;;;10.36;100.00
80798;BME280;70202;52.238;10.680;2023-11-21T04:06:12;99727.56;;;10.36;100.00
80798;BME280;70202;52.238;10.680;2023-11-21T04:07:13;99719.69;;;10.30;99.97
80798;BME280;70202;52.238;10.680;2023-11-21T04:08:13;99705.53;;;10.22;100.00
80798;BME280;70202;52.238;10.680;2023-11-21T04:09:14;99701.84;;;10.23;100.00
80798;BME280;70202;52.238;10.680;2023-11-21T04:10:15;99728.47;;;10.37;100.00
80798;BME280;70202;52.238;10.680;2023-11-21T04:11:16;99699.34;;;10.18;100.00
80798;BME280;70202;52.238;10.680;2023-11-21T04:12:16;99704.56;;;10.24;100.00
80798;BME280;70202;52.238;10.680;2023-11-21T04:13:16;99680.88;;;10.06;100.00
80798;BME280;70202;52.238;10.680;2023-11-21T04:14:18;99702.72;;;10.23;100.00
80798;BME280;70202;52.238;10.680;2023-11-21T04:15:18;99728.00;;;10.27;100.00
80798;BME280;70202;52.238;10.680;2023-11-21T04:16:19;99722.50;;;10.29;100.00
80798;BME280;70202;52.238;10.680;2023-11-21T04:17:19;99696.72;;;10.17;100.00
80798;BME280;70202;52.238;10.680;2023-11-21T04:18:20;99739.41;;;10.35;100.00
80798;BME280;70202;52.238;10.680;2023-11-21T04:19:20;99700.22;;;10.19;100.00
80798;BME280;70202;52.238;10.680;2023-11-21T04:20:21;99739.38;;;10.37;100.00
80798;BME280;70202;52.238;10.680;2023-11-21T04:21:23;99730.28;;;10.36;100.00
80798;BME280;70202;52.238;10.680;2023-11-21T04:22:24;99711.94;;;10.21;100.00
80798;BME280;70202;52.238;10.680;2023-11-21T04:23:24;99739.38;;;10.37;100.00
80798;BME280;70202;52.238;10.680;2023-11-21T04:24:25;99709.13;;;10.22;100.00
80798;BME280;70202;52.238;10.680;2023-11-21T04:25:26;99704.78;;;10.18;100.00
80798;BME280;70202;52.238;10.680;2023-11-21T04:26:27;99733.19;;;10.33;100.00
80798;BME280;70202;52.238;10.680;2023-11-21T04:27:27;99715.47;;;10.23;100.00
80798;BME280;70202;52.238;10.680;2023-11-21T04:28:28;99730.59;;;10.30;100.00
80798;BME280;70202;52.238;10.680;2023-11-21T04:29:28;99737.56;;;10.36;100.00
80798;BME280;70202;52.238;10.680;2023-11-21T04:30:28;99722.63;;;10.25;100.00
80798;BME280;70202;52.238;10.680;2023-11-21T04:31:29;99743.00;;;10.36;100.00
80798;BME280;70202;52.238;10.680;2023-11-21T04:32:29;99719.06;;;10.23;100.00
80798;BME280;70202;52.238;10.680;2023-11-21T04:33:30;99708.56;;;10.16;100.00
80798;BME280;70202;52.238;10.680;2023-11-21T04:34:31;99727.94;;;10.29;100.00
80798;BME280;70202;52.238;10.680;2023-11-21T04:35:32;99718.06;;;10.26;100.00
80798;BME280;70202;52.238;10.680;2023-11-21T04:36:32;99743.75;;;10.39;100.00
80798;BME280;70202;52.238;10.680;2023-11-21T04:37:32;99719.13;;;10.22;100.00
80798;BME280;70202;52.238;10.680;2023-11-21T04:38:33;99745.59;;;10.39;100.00
80798;BME280;70202;52.238;10.680;2023-11-21T04:39:33;99732.44;;;10.30;100.00
80798;BME280;70202;52.238;10.680;2023-11-21T04:40:33;99754.66;;;10.39;100.00
80798;BME280;70202;52.238;10.680;2023-11-21T04:41:34;99725.28;;;10.27;100.00
80798;BME280;70202;52.238;10.680;2023-11-21T04:42:35;99732.56;;;10.26;100.00
80798;BME280;70202;52.238;10.680;2023-11-21T04:43:38;99752.88;;;10.38;100.00
80798;BME280;70202;52.238;10.680;2023-11-21T04:44:39;99756.56;;;10.37;100.00
80798;BME280;70202;52.238;10.680;2023-11-21T04:45:41;99731.78;;;10.24;100.00
80798;BME280;70202;52.238;10.680;2023-11-21T04:46:41;99713.25;;;10.12;100.00
80798;BME280;70202;52.238;10.680;2023-11-21T04:47:42;99759.22;;;10.39;100.00
80798;BME280;70202;52.238;10.680;2023-11-21T04:48:43;99749.72;;;10.29;100.00
80798;BME280;70202;52.238;10.680;2023-11-21T04:49:45;99763.78;;;10.38;100.00
80798;BME280;70202;52.238;10.680;2023-11-21T04:50:47;99753.84;;;10.37;100.00
80798;BME280;70202;52.238;10.680;2023-11-21T04:51:47;99727.53;;;10.17;100.00
80798;BME280;70202;52.238;10.680;2023-11-21T04:52:47;99717.06;;;10.08;100.00
80798;BME280;70202;52.238;10.680;2023-11-21T04:53:48;99736.56;;;10.18;100.00
80798;BME280;70202;52.238;10.680;2023-11-21T04:54:48;99770.25;;;10.36;100.00
80798;BME280;70202;52.238;10.680;2023-11-21T04:55:49;99753.38;;;10.27;100.00
80798;BME280;70202;52.238;10.680;2023-11-21T04:56:49;99766.63;;;10.35;100.00
80798;BME280;70202;52.238;10.680;2023-11-21T04:57:49;99735.78;;;10.16;100.00
80798;BME280;70202;52.238;10.680;2023-11-21T04:58:50;99773.94;;;10.35;100.00
80798;BME280;70202;52.238;10.680;2023-11-21T04:59:50;99742.09;;;10.16;100.00
80798;BME280;70202;52.238;10.680;2023-11-21T05:00:50;99759.88;;;10.25;100.00
80798;BME280;70202;52.238;10.680;2023-11-21T05:01:51;99753.66;;;10.21;100.00
80798;BME280;70202;52.238;10.680;2023-11-21T05:02:51;99745.78;;;10.15;100.00
80798;BME280;70202;52.238;10.680;2023-11-21T05:03:52;99739.41;;;10.15;100.00
80798;BME280;70202;52.238;10.680;2023-11-21T05:04:52;99746.69;;;10.14;100.00
80798;BME280;70202;52.238;10.680;2023-11-21T05:05:53;99747.59;;;10.15;100.00
80798;BME280;70202;52.238;10.680;2023-11-21T05:06:53;99790.25;;;10.35;100.00
80798;BME280;70202;52.238;10.680;2023-11-21T05:07:54;99745.97;;;10.11;100.00
80798;BME280;70202;52.238;10.680;2023-11-21T05:08:54;99759.31;;;10.17;100.00
80798;BME280;70202;52.238;10.680;2023-11-21T05:09:55;99789.38;;;10.34;100.00
80798;BME280;70202;52.238;10.680;2023-11-21T05:10:56;99793.06;;;10.33;100.00
80798;BME280;70202;52.238;10.680;2023-11-21T05:11:56;99758.34;;;10.18;100.00
80798;BME280;70202;52.238;10.680;2023-11-21T05:12:56;99770.84;;;10.22;100.00
80798;BME280;70202;52.238;10.680;2023-11-21T05:13:57;99793.94;;;10.34;100.00
80798;BME280;70202;52.238;10.680;2023-11-21T05:14:58;99754.28;;;10.08;100.00